Varzelandia, Brazil
Current Conditions -  °F | °C
As of 3:00 PM on Friday 31 Oct 2014 (Local Time) from SBMK Reporting Station
Scattered Clouds Scattered Clouds  
Wind Chill: 86°   Ceiling: Unl
Heat Index: 86°   Visibility: 6mi
Dew Point: 61°   Wind: 10mph
Humidity: 43%   Direction: 60°ENE
Pressure: 29.97"   Gusts: NA
Location:  15.7°S, 44.03°W
Report Text: SBMK 311700Z 06009KT 010V110 9999 SCT045 FEW050TCU 30/16 Q1015
Loading
Personal Weather Stations






























Interactive Weather Map
Tropical Storm Tracking
New forecast layout! Learn more

10-Day Weather Forecast

Advertisements
Track Severe Weather on mobile